createdAt,value
2023-03-17T00:01:26.653Z,9.02
2023-03-17T00:03:30.494Z,7.03
2023-03-17T00:05:35.625Z,7.45
2023-03-17T00:07:38.749Z,7.60
2023-03-17T00:09:41.842Z,9.77
2023-03-17T00:11:47.131Z,9.20
2023-03-17T00:13:50.289Z,8.40
2023-03-17T00:15:55.776Z,7.15
2023-03-17T00:17:59.013Z,7.93
2023-03-17T00:20:02.210Z,9.18
2023-03-17T00:22:06.616Z,7.97
2023-03-17T00:24:12.964Z,8.18
2023-03-17T00:26:17.787Z,6.47
2023-03-17T00:28:24.683Z,7.70
2023-03-17T00:30:29.041Z,7.00
2023-03-17T00:32:32.899Z,7.53
2023-03-17T00:34:36.284Z,7.40
2023-03-17T00:36:39.497Z,6.22
2023-03-17T00:38:42.645Z,6.85
2023-03-17T00:40:49.030Z,7.93
2023-03-17T00:42:53.497Z,8.05
2023-03-17T00:44:58.011Z,8.52
2023-03-17T00:47:01.894Z,6.75
2023-03-17T00:49:07.484Z,9.30
2023-03-17T00:51:10.767Z,9.65
2023-03-17T00:53:15.146Z,6.20
2023-03-17T00:55:20.450Z,7.82
2023-03-17T00:57:24.660Z,7.47
2023-03-17T00:59:30.849Z,9.20
2023-03-17T01:01:35.704Z,9.27
2023-03-17T01:03:39.598Z,7.40
2023-03-17T01:05:42.823Z,8.77
2023-03-17T01:07:52.754Z,7.15
2023-03-17T01:09:56.063Z,7.70
2023-03-17T01:12:00.630Z,7.80
2023-03-17T01:14:03.737Z,7.90
2023-03-17T01:16:10.157Z,8.27
2023-03-17T01:18:16.931Z,20.50
2023-03-17T01:20:22.811Z,11.18
2023-03-17T01:22:26.078Z,17.05
2023-03-17T01:24:29.300Z,9.52
2023-03-17T01:26:32.436Z,7.82
2023-03-17T01:28:36.195Z,6.50
2023-03-17T01:30:40.319Z,8.25
2023-03-17T01:32:43.441Z,8.65
2023-03-17T01:34:47.932Z,18.38
2023-03-17T01:36:51.024Z,8.02
2023-03-17T01:38:54.085Z,5.88
2023-03-17T01:40:57.173Z,7.28
2023-03-17T01:43:02.120Z,6.32
2023-03-17T01:45:08.157Z,6.55
2023-03-17T01:47:11.336Z,6.10
2023-03-17T01:49:21.205Z,6.25
2023-03-17T01:51:29.513Z,7.88
2023-03-17T01:53:32.659Z,5.75
2023-03-17T01:55:36.652Z,9.63
2023-03-17T01:57:42.101Z,8.13
2023-03-17T01:59:48.079Z,9.48
2023-03-17T02:01:54.362Z,11.43
2023-03-17T02:03:57.697Z,6.53
2023-03-17T02:06:01.546Z,7.90
2023-03-17T02:08:11.150Z,8.80
2023-03-17T02:10:15.801Z,7.13
2023-03-17T02:12:18.985Z,10.77
2023-03-17T02:14:25.612Z,7.68
2023-03-17T02:16:31.713Z,9.02
2023-03-17T02:18:35.181Z,7.13
2023-03-17T02:21:26.023Z,6.93
2023-03-17T02:23:30.585Z,9.25
2023-03-17T02:25:35.907Z,6.88
2023-03-17T02:27:41.884Z,6.85
2023-03-17T02:29:46.381Z,5.70
2023-03-17T02:31:49.718Z,7.78
2023-03-17T02:33:53.242Z,7.45
2023-03-17T02:35:57.648Z,8.98
2023-03-17T02:38:01.049Z,5.82
2023-03-17T02:40:09.382Z,7.25
2023-03-17T02:42:13.966Z,5.68
2023-03-17T02:44:17.206Z,6.70
2023-03-17T02:46:19.704Z,6.25
2023-03-17T02:48:23.695Z,5.65
2023-03-17T02:50:28.790Z,5.38
2023-03-17T02:52:32.182Z,7.15
2023-03-17T02:54:35.946Z,6.22
2023-03-17T02:56:41.084Z,8.02
2023-03-17T02:58:44.415Z,8.75
2023-03-17T03:00:48.838Z,6.47
2023-03-17T03:02:51.963Z,6.07
2023-03-17T03:04:55.085Z,5.80
2023-03-17T03:07:01.082Z,8.50
2023-03-17T03:09:04.769Z,5.35
2023-03-17T03:11:07.891Z,6.38
2023-03-17T03:13:12.929Z,5.82
2023-03-17T03:15:16.102Z,6.65
2023-03-17T03:17:19.279Z,6.88
2023-03-17T03:19:22.781Z,7.85
2023-03-17T03:21:26.437Z,7.78
2023-03-17T03:23:29.591Z,7.82
2023-03-17T03:25:32.762Z,7.05
2023-03-17T03:27:36.234Z,6.22
2023-03-17T03:29:41.721Z,8.10
2023-03-17T03:31:44.822Z,7.95
2023-03-17T03:33:48.305Z,7.20
2023-03-17T03:35:51.390Z,5.13
2023-03-17T03:37:54.487Z,5.70
2023-03-17T03:39:57.554Z,7.15
2023-03-17T03:42:00.704Z,7.20
2023-03-17T03:44:03.941Z,7.32
2023-03-17T03:46:08.562Z,7.28
2023-03-17T03:48:11.730Z,7.95
2023-03-17T03:50:14.954Z,7.68
2023-03-17T03:52:18.058Z,7.85
2023-03-17T03:54:21.150Z,7.00
2023-03-17T03:56:24.217Z,6.70
2023-03-17T03:58:27.248Z,8.10
2023-03-17T04:00:30.655Z,6.18
2023-03-17T04:02:35.241Z,6.70
2023-03-17T04:04:38.622Z,6.78
2023-03-17T04:06:41.955Z,6.22
2023-03-17T04:08:45.014Z,7.90
2023-03-17T04:10:48.231Z,8.90
2023-03-17T04:12:51.572Z,8.77
2023-03-17T04:14:54.832Z,6.65
2023-03-17T04:16:57.915Z,8.55
2023-03-17T04:19:02.390Z,8.27
2023-03-17T04:21:06.129Z,8.27
2023-03-17T04:23:09.335Z,7.95
2023-03-17T04:25:14.628Z,10.35
2023-03-17T04:27:18.735Z,7.93
2023-03-17T04:29:21.806Z,7.40
2023-03-17T04:31:24.883Z,9.40
2023-03-17T04:33:28.003Z,8.20
2023-03-17T04:35:32.450Z,7.20
2023-03-17T04:37:35.533Z,8.30
2023-03-17T04:39:38.702Z,9.05
2023-03-17T04:41:41.783Z,9.85
2023-03-17T04:43:45.004Z,8.38
2023-03-17T04:45:48.062Z,8.20
2023-03-17T04:47:51.179Z,12.98
2023-03-17T04:49:54.345Z,10.32
2023-03-17T04:51:58.811Z,9.73
2023-03-17T04:54:02.313Z,9.88
2023-03-17T04:56:05.994Z,10.68
2023-03-17T04:58:10.365Z,8.30
2023-03-17T05:00:15.699Z,8.52
2023-03-17T05:02:19.577Z,7.93
2023-03-17T05:04:31.273Z,9.45
2023-03-17T05:06:34.949Z,8.45
2023-03-17T05:08:39.406Z,7.68
2023-03-17T05:10:42.571Z,9.20
2023-03-17T05:12:45.897Z,12.15
2023-03-17T05:14:49.046Z,9.20
2023-03-17T05:16:52.443Z,9.23
2023-03-17T05:18:56.280Z,8.68
2023-03-17T05:20:59.264Z,7.95
2023-03-17T05:23:02.315Z,8.65
2023-03-17T05:25:07.757Z,6.80
2023-03-17T05:27:11.007Z,8.48
2023-03-17T05:29:14.623Z,8.30
2023-03-17T05:31:19.103Z,8.73
2023-03-17T05:33:23.049Z,8.95
2023-03-17T05:35:26.204Z,8.10
2023-03-17T05:37:29.487Z,8.25
2023-03-17T05:39:32.895Z,9.23
2023-03-17T05:41:37.354Z,8.43
2023-03-17T05:43:41.329Z,12.55
2023-03-17T05:45:45.083Z,6.93
2023-03-17T05:47:48.229Z,8.82
2023-03-17T05:49:51.643Z,7.32
2023-03-17T05:51:55.165Z,6.30
2023-03-17T05:53:58.362Z,7.50
2023-03-17T05:56:01.729Z,7.03
2023-03-17T05:58:06.639Z,7.75
2023-03-17T06:00:12.773Z,9.05
2023-03-17T06:02:16.240Z,8.27
2023-03-17T06:04:19.357Z,7.63
2023-03-17T06:06:22.429Z,8.35
2023-03-17T06:08:25.504Z,5.75
2023-03-17T06:10:29.203Z,8.40
2023-03-17T06:12:32.788Z,7.55
2023-03-17T06:14:37.427Z,6.85
2023-03-17T06:16:40.637Z,9.45
2023-03-17T06:18:43.775Z,7.15
2023-03-17T06:20:46.952Z,8.38
2023-03-17T06:23:03.186Z,7.45
2023-03-17T06:25:08.426Z,7.95
2023-03-17T06:27:13.040Z,7.32
2023-03-17T06:29:16.171Z,7.15
2023-03-17T06:31:20.649Z,7.53
2023-03-17T06:33:24.845Z,8.98
2023-03-17T06:35:28.487Z,9.40
2023-03-17T06:37:31.647Z,8.85
2023-03-17T06:39:34.739Z,6.55
2023-03-17T06:41:37.822Z,6.50
2023-03-17T06:43:40.916Z,8.05
2023-03-17T06:45:43.991Z,8.88
2023-03-17T06:47:48.397Z,7.32
2023-03-17T06:49:51.449Z,7.13
2023-03-17T06:51:54.733Z,7.78
2023-03-17T06:53:57.918Z,9.88
2023-03-17T06:56:01.035Z,8.30
2023-03-17T06:58:04.065Z,8.35
2023-03-17T07:00:08.494Z,8.43
2023-03-17T07:02:12.745Z,8.25
2023-03-17T07:04:17.387Z,12.88
2023-03-17T07:06:20.594Z,18.40
2023-03-17T07:08:25.988Z,16.85
2023-03-17T07:10:30.351Z,14.95
2023-03-17T07:12:34.575Z,16.60
2023-03-17T07:14:38.018Z,14.07
2023-03-17T07:16:41.418Z,11.93
2023-03-17T07:18:45.038Z,8.05
2023-03-17T07:20:49.489Z,8.88
2023-03-17T07:22:52.896Z,7.50
2023-03-17T07:24:56.069Z,7.80
2023-03-17T07:26:59.150Z,6.55
2023-03-17T07:29:02.484Z,9.68
2023-03-17T07:31:08.826Z,6.30
2023-03-17T07:33:12.234Z,8.30
2023-03-17T07:35:16.102Z,7.17
2023-03-17T07:37:21.419Z,9.63
2023-03-17T07:39:24.552Z,7.40
2023-03-17T07:41:27.609Z,8.40
2023-03-17T07:43:30.754Z,7.20
2023-03-17T07:45:35.973Z,7.23
2023-03-17T07:47:39.327Z,6.70
2023-03-17T07:49:42.694Z,6.90
2023-03-17T07:51:45.899Z,7.33
2023-03-17T07:53:50.694Z,7.83
2023-03-17T07:55:53.905Z,5.90
2023-03-17T07:57:57.461Z,12.60
2023-03-17T08:00:01.185Z,7.03
2023-03-17T08:02:16.489Z,8.20
2023-03-17T08:04:19.967Z,6.30
2023-03-17T08:06:25.316Z,9.23
2023-03-17T08:08:29.247Z,9.17
2023-03-17T08:10:34.115Z,12.10
2023-03-17T08:12:37.639Z,8.77
2023-03-17T08:14:41.479Z,6.90
2023-03-17T08:16:44.638Z,8.37
2023-03-17T08:18:48.106Z,7.17
2023-03-17T08:20:51.454Z,6.60
2023-03-17T08:22:54.774Z,6.00
2023-03-17T08:24:58.605Z,6.93
2023-03-17T08:27:03.956Z,7.97
2023-03-17T08:29:08.198Z,7.27
2023-03-17T08:31:13.747Z,10.17
2023-03-17T08:33:17.211Z,8.00
2023-03-17T08:35:20.859Z,9.90
2023-03-17T08:37:24.676Z,8.33
2023-03-17T08:39:27.936Z,8.43
2023-03-17T08:41:31.128Z,9.20
2023-03-17T08:43:37.356Z,8.13
2023-03-17T08:45:40.753Z,14.57
2023-03-17T08:47:43.936Z,9.93
2023-03-17T08:49:46.954Z,9.60
2023-03-17T08:51:50.084Z,7.13
2023-03-17T08:53:54.097Z,6.43
2023-03-17T08:55:57.885Z,5.83
2023-03-17T08:58:01.502Z,6.17
2023-03-17T09:00:11.025Z,10.53
2023-03-17T09:02:14.524Z,4.53
2023-03-17T09:04:17.767Z,5.97
2023-03-17T09:06:21.416Z,6.60
2023-03-17T09:08:24.808Z,7.43
2023-03-17T09:10:29.262Z,4.33
2023-03-17T09:12:34.179Z,7.50
2023-03-17T09:14:43.761Z,6.50
2023-03-17T09:16:49.616Z,6.70
2023-03-17T09:18:52.942Z,5.20
2023-03-17T09:20:56.448Z,4.73
2023-03-17T09:22:59.942Z,6.90
2023-03-17T09:25:03.051Z,4.27
2023-03-17T09:27:06.352Z,4.70
2023-03-17T09:29:09.578Z,4.60
2023-03-17T09:31:12.910Z,4.30
2023-03-17T09:33:17.765Z,5.10
2023-03-17T09:35:21.078Z,5.67
2023-03-17T09:37:24.304Z,4.17
2023-03-17T09:39:27.562Z,3.70
2023-03-17T09:41:52.467Z,4.17
2023-03-17T09:43:57.941Z,5.03
2023-03-17T09:46:07.623Z,3.40
2023-03-17T09:48:29.556Z,4.00
2023-03-17T09:50:39.199Z,3.40
2023-03-17T09:52:42.211Z,3.50
2023-03-17T09:54:46.654Z,3.40
2023-03-17T09:56:53.056Z,3.43
2023-03-17T09:58:58.602Z,3.00
2023-03-17T10:01:03.103Z,3.50
2023-03-17T10:03:11.444Z,6.33
2023-03-17T10:05:20.575Z,3.87
2023-03-17T10:07:28.545Z,2.83
2023-03-17T10:09:35.817Z,4.23
2023-03-17T10:11:44.144Z,3.00
2023-03-17T10:13:54.848Z,3.40
2023-03-17T10:16:01.073Z,2.90
2023-03-17T10:18:11.426Z,3.60
2023-03-17T10:20:18.845Z,3.00
2023-03-17T10:22:26.412Z,3.70
2023-03-17T10:24:32.535Z,2.87
2023-03-17T10:26:39.839Z,3.60
2023-03-17T10:28:43.217Z,2.57
2023-03-17T10:30:46.406Z,4.20
2023-03-17T10:32:50.258Z,4.30
2023-03-17T10:34:54.223Z,5.70
2023-03-17T10:37:02.134Z,3.50
2023-03-17T10:39:07.074Z,3.13
2023-03-17T10:41:14.778Z,3.60
2023-03-17T10:43:20.691Z,6.23
2023-03-17T10:45:29.145Z,4.17
2023-03-17T10:47:34.856Z,5.27
2023-03-17T10:49:38.055Z,3.87
2023-03-17T10:51:41.107Z,6.30
2023-03-17T10:53:45.531Z,4.03
2023-03-17T10:55:50.998Z,3.60
2023-03-17T10:57:56.092Z,3.07
2023-03-17T11:00:01.755Z,2.47
2023-03-17T11:02:13.505Z,3.10
2023-03-17T11:04:31.541Z,2.30
2023-03-17T11:06:39.331Z,3.43
2023-03-17T11:08:43.960Z,3.03
2023-03-17T11:10:55.607Z,3.10
2023-03-17T11:13:01.758Z,2.90
2023-03-17T11:15:07.079Z,3.10
2023-03-17T11:17:17.531Z,2.83
2023-03-17T11:19:21.883Z,3.20
2023-03-17T11:21:28.940Z,2.40
2023-03-17T11:23:53.910Z,2.37
2023-03-17T11:26:07.433Z,2.93
2023-03-17T11:28:19.873Z,3.30
2023-03-17T11:30:30.550Z,3.00
2023-03-17T11:32:37.027Z,2.93
2023-03-17T11:34:49.502Z,4.40
2023-03-17T11:36:59.151Z,2.83
2023-03-17T11:39:10.160Z,2.73
2023-03-17T11:41:35.684Z,2.90
2023-03-17T11:43:47.550Z,2.40
2023-03-17T11:45:53.942Z,2.30
2023-03-17T11:48:13.815Z,4.50
2023-03-17T11:50:24.556Z,2.10
2023-03-17T11:52:32.603Z,4.10
2023-03-17T11:54:42.539Z,2.23
2023-03-17T11:56:51.192Z,3.37
2023-03-17T11:58:57.332Z,3.10
2023-03-17T12:01:01.726Z,3.80
2023-03-17T12:03:13.375Z,2.70
2023-03-17T12:05:19.007Z,2.57
2023-03-17T12:07:25.751Z,3.20
2023-03-17T12:09:32.004Z,2.83
2023-03-17T12:11:38.094Z,3.47
2023-03-17T12:13:45.894Z,2.07
2023-03-17T12:15:53.258Z,3.27
2023-03-17T12:17:59.213Z,3.17
2023-03-17T12:20:12.448Z,2.50
2023-03-17T12:22:22.688Z,3.30
2023-03-17T12:24:28.848Z,2.03
2023-03-17T12:26:37.166Z,2.30
2023-03-17T12:28:45.688Z,1.57
2023-03-17T12:30:51.631Z,2.17
2023-03-17T12:33:00.872Z,3.17
2023-03-17T12:35:18.078Z,2.87
2023-03-17T12:37:21.432Z,2.80
2023-03-17T12:39:28.128Z,2.77
2023-03-17T12:42:01.669Z,1.73
2023-03-17T12:44:11.274Z,2.92
2023-03-17T12:46:23.380Z,2.50
2023-03-17T12:49:00.219Z,4.20
2023-03-17T12:51:13.838Z,2.27
2023-03-17T12:53:29.592Z,2.00
2023-03-17T12:55:36.052Z,2.40
2023-03-17T12:57:41.808Z,2.70
2023-03-17T12:59:48.197Z,2.13
2023-03-17T13:01:57.488Z,2.67
2023-03-17T13:04:10.596Z,3.40
2023-03-17T13:06:18.455Z,2.00
2023-03-17T13:08:28.248Z,2.50
2023-03-17T13:10:40.132Z,3.73
2023-03-17T13:13:08.845Z,2.70
2023-03-17T13:15:28.270Z,2.17
2023-03-17T13:17:33.125Z,2.60
2023-03-17T13:19:36.227Z,2.30
2023-03-17T13:21:39.900Z,3.83
2023-03-17T13:23:45.076Z,1.90
2023-03-17T13:25:54.715Z,3.13
2023-03-17T13:28:18.195Z,2.40
2023-03-17T13:31:00.771Z,5.33
2023-03-17T13:33:23.210Z,2.33
2023-03-17T13:35:39.165Z,2.70
2023-03-17T13:37:52.043Z,3.97
2023-03-17T13:40:15.787Z,3.10
2023-03-17T13:42:46.317Z,3.50
2023-03-17T13:45:05.453Z,2.93
2023-03-17T13:47:29.556Z,2.47
2023-03-17T13:49:36.712Z,3.60
2023-03-17T13:51:43.897Z,2.43
2023-03-17T13:53:53.520Z,2.23
2023-03-17T13:56:17.540Z,2.60
2023-03-17T13:58:34.312Z,4.37
2023-03-17T14:00:38.578Z,2.70
2023-03-17T14:02:44.599Z,3.30
2023-03-17T14:04:53.500Z,8.60
2023-03-17T14:07:00.534Z,3.37
2023-03-17T14:09:09.643Z,4.30
2023-03-17T14:11:22.482Z,2.10
2023-03-17T14:13:27.914Z,2.33
2023-03-17T14:15:34.307Z,3.67
2023-03-17T14:17:44.528Z,1.90
2023-03-17T14:20:08.215Z,3.90
2023-03-17T14:22:22.375Z,1.83
2023-03-17T14:24:26.823Z,1.80
2023-03-17T14:26:31.185Z,2.40
2023-03-17T14:28:35.516Z,2.83
2023-03-17T14:30:38.723Z,2.40
2023-03-17T14:32:47.636Z,20.93
2023-03-17T14:34:56.191Z,2.80
2023-03-17T14:37:02.364Z,3.20
2023-03-17T14:39:06.097Z,3.50
2023-03-17T14:41:18.315Z,6.47
2023-03-17T14:43:21.367Z,3.20
2023-03-17T14:45:30.247Z,3.40
2023-03-17T14:47:38.560Z,2.93
2023-03-17T14:49:43.138Z,2.20
2023-03-17T14:51:46.647Z,1.87
2023-03-17T14:53:50.210Z,2.30
2023-03-17T14:55:54.184Z,1.90
2023-03-17T14:57:57.270Z,3.27
2023-03-17T15:00:01.816Z,2.20
2023-03-17T15:02:17.230Z,2.53
2023-03-17T15:04:23.181Z,1.90
2023-03-17T15:06:29.591Z,2.00
2023-03-17T15:08:46.112Z,2.03
2023-03-17T15:10:49.387Z,3.00
2023-03-17T15:13:01.353Z,3.60
2023-03-17T15:15:07.630Z,1.87
2023-03-17T15:17:17.779Z,2.63
2023-03-17T15:19:23.153Z,2.60
2023-03-17T15:21:34.427Z,2.60
2023-03-17T15:23:40.803Z,2.40
2023-03-17T15:25:45.317Z,5.80
2023-03-17T15:27:49.114Z,7.07
2023-03-17T15:29:52.209Z,4.53
2023-03-17T15:31:56.986Z,3.10
2023-03-17T15:34:00.282Z,3.50
2023-03-17T15:36:03.965Z,7.10
2023-03-17T15:38:10.827Z,3.40
2023-03-17T15:40:15.729Z,3.83
2023-03-17T15:42:22.146Z,4.30
2023-03-17T15:44:26.040Z,3.50
2023-03-17T15:46:32.298Z,3.17
2023-03-17T15:48:36.746Z,6.60
2023-03-17T15:50:39.867Z,4.03
2023-03-17T15:52:43.760Z,4.03
2023-03-17T15:54:48.870Z,3.83
2023-03-17T15:56:52.142Z,6.13
2023-03-17T15:58:55.392Z,3.80
2023-03-17T16:00:59.697Z,4.50
2023-03-17T16:03:07.414Z,4.67
2023-03-17T16:05:17.205Z,5.27
2023-03-17T16:07:21.318Z,8.30
2023-03-17T16:09:24.316Z,6.20
2023-03-17T16:11:31.906Z,6.00
2023-03-17T16:13:35.038Z,3.60
2023-03-17T16:15:39.546Z,4.10
2023-03-17T16:17:42.756Z,2.27
2023-03-17T16:19:45.957Z,3.30
2023-03-17T16:21:49.534Z,2.07
2023-03-17T16:23:52.706Z,2.43
2023-03-17T16:26:07.896Z,4.70
2023-03-17T16:28:21.201Z,6.40
2023-03-17T16:30:26.019Z,12.20
2023-03-17T16:32:29.112Z,7.67
2023-03-17T16:34:32.784Z,4.33
2023-03-17T16:36:35.828Z,3.03
2023-03-17T16:38:38.889Z,4.07
2023-03-17T16:40:42.823Z,3.80
2023-03-17T16:42:46.025Z,5.67
2023-03-17T16:44:51.196Z,6.93
2023-03-17T16:46:54.444Z,3.53
2023-03-17T16:48:57.631Z,3.50
2023-03-17T16:51:00.647Z,3.57
2023-03-17T16:53:03.734Z,3.83
2023-03-17T16:55:09.442Z,6.70
2023-03-17T16:57:13.369Z,4.13
2023-03-17T16:59:24.598Z,4.10
2023-03-17T17:01:30.093Z,3.53
2023-03-17T17:03:33.346Z,3.90
2023-03-17T17:05:36.668Z,3.77
2023-03-17T17:07:39.954Z,3.53
2023-03-17T17:09:42.984Z,3.47
2023-03-17T17:11:46.097Z,4.10
2023-03-17T17:13:51.759Z,4.60
2023-03-17T17:15:55.801Z,5.10
2023-03-17T17:18:02.550Z,4.77
2023-03-17T17:20:07.925Z,3.60
2023-03-17T17:22:12.403Z,4.00
2023-03-17T17:24:16.509Z,3.63
2023-03-17T17:26:19.800Z,4.50
2023-03-17T17:28:24.480Z,6.67
2023-03-17T17:30:30.256Z,4.43
2023-03-17T17:32:33.858Z,6.20
2023-03-17T17:34:38.636Z,6.57
2023-03-17T17:36:42.077Z,6.27
2023-03-17T17:38:45.704Z,7.57
2023-03-17T17:40:49.849Z,4.70
2023-03-17T17:42:53.463Z,6.10
2023-03-17T17:44:56.557Z,3.60
2023-03-17T17:46:59.846Z,8.23
2023-03-17T17:49:03.103Z,14.53
2023-03-17T17:51:07.669Z,14.07
2023-03-17T17:53:12.366Z,11.90
2023-03-17T17:55:15.774Z,8.13
2023-03-17T17:57:19.251Z,12.30
2023-03-17T17:59:23.623Z,11.23
2023-03-17T18:01:26.911Z,14.30
2023-03-17T18:03:32.148Z,10.60
2023-03-17T18:05:36.178Z,12.17
2023-03-17T18:07:41.289Z,10.33
2023-03-17T18:09:44.381Z,10.63
2023-03-17T18:11:47.638Z,8.70
2023-03-17T18:13:51.000Z,12.17
2023-03-17T18:15:54.216Z,11.33
2023-03-17T18:17:57.423Z,12.03
2023-03-17T18:20:00.803Z,13.70
2023-03-17T18:22:04.417Z,12.00
2023-03-17T18:24:09.606Z,14.77
2023-03-17T18:26:13.072Z,9.23
2023-03-17T18:28:16.288Z,10.63
2023-03-17T18:30:22.318Z,10.10
2023-03-17T18:32:25.970Z,13.97
2023-03-17T18:34:35.139Z,13.13
2023-03-17T18:36:38.582Z,11.57
2023-03-17T18:38:41.713Z,10.70
2023-03-17T18:40:46.401Z,8.83
2023-03-17T18:42:49.514Z,33.53
2023-03-17T18:44:52.775Z,18.93
2023-03-17T18:46:55.902Z,50.20
2023-03-17T18:48:59.128Z,13.80
2023-03-17T18:51:02.338Z,15.60
2023-03-17T18:53:05.779Z,15.40
2023-03-17T18:55:10.140Z,11.90
2023-03-17T18:57:14.840Z,9.73
2023-03-17T18:59:17.972Z,10.50
2023-03-17T19:01:21.520Z,9.07
2023-03-17T19:03:24.812Z,13.20
2023-03-17T19:05:27.891Z,11.07
2023-03-17T19:07:31.266Z,13.90
2023-03-17T19:09:34.275Z,12.27
2023-03-17T19:11:38.885Z,13.03
2023-03-17T19:13:44.934Z,8.48
2023-03-17T19:15:48.172Z,8.20
2023-03-17T19:17:51.491Z,23.87
2023-03-17T19:19:54.762Z,17.30
2023-03-17T19:21:57.818Z,16.20
2023-03-17T19:24:03.310Z,18.57
2023-03-17T19:26:07.567Z,20.10
2023-03-17T19:28:10.637Z,12.13
2023-03-17T19:30:16.167Z,14.70
2023-03-17T19:32:19.323Z,9.70
2023-03-17T19:34:23.035Z,26.23
2023-03-17T19:36:26.167Z,39.97
2023-03-17T19:38:29.430Z,26.53
2023-03-17T19:40:32.977Z,36.30
2023-03-17T19:42:36.356Z,17.37
2023-03-17T19:44:39.493Z,12.47
2023-03-17T19:46:44.098Z,13.20
2023-03-17T19:48:47.190Z,14.70
2023-03-17T19:50:50.320Z,18.00
2023-03-17T19:52:53.972Z,9.73
2023-03-17T19:54:57.041Z,10.90
2023-03-17T19:57:00.123Z,9.83
2023-03-17T19:59:03.297Z,11.10
2023-03-17T20:01:07.537Z,11.40
2023-03-17T20:03:12.719Z,12.20
2023-03-17T20:05:16.648Z,10.70
2023-03-17T20:07:19.847Z,7.70
2023-03-17T20:09:23.135Z,9.57
2023-03-17T20:11:27.259Z,8.80
2023-03-17T20:13:30.436Z,12.23
2023-03-17T20:15:33.769Z,11.23
2023-03-17T20:17:37.361Z,13.90
2023-03-17T20:19:41.871Z,11.47
2023-03-17T20:21:45.114Z,13.53
2023-03-17T20:23:48.239Z,11.20
2023-03-17T20:25:52.235Z,20.93
2023-03-17T20:27:55.413Z,13.03
2023-03-17T20:29:59.046Z,16.17
2023-03-17T20:32:02.235Z,26.37
2023-03-17T20:34:05.506Z,31.03
2023-03-17T20:36:10.745Z,29.20
2023-03-17T20:38:14.612Z,22.30
2023-03-17T20:40:18.039Z,20.97
2023-03-17T20:42:21.707Z,14.20
2023-03-17T20:44:24.955Z,15.73
2023-03-17T20:46:28.097Z,13.07
2023-03-17T20:48:31.352Z,13.77
2023-03-17T20:50:37.898Z,14.30
2023-03-17T20:52:42.951Z,11.97
2023-03-17T20:54:46.408Z,14.73
2023-03-17T20:56:52.373Z,12.63
2023-03-17T20:58:56.433Z,11.53
2023-03-17T21:01:01.700Z,12.40
2023-03-17T21:03:05.049Z,10.10
2023-03-17T21:05:08.852Z,8.50
2023-03-17T21:07:11.966Z,10.67
2023-03-17T21:09:16.544Z,11.90
2023-03-17T21:11:23.027Z,12.70
2023-03-17T21:13:26.253Z,11.53
2023-03-17T21:15:29.561Z,12.40
2023-03-17T21:17:32.996Z,12.63
2023-03-17T21:19:36.179Z,10.50
2023-03-17T21:21:40.060Z,13.30
2023-03-17T21:23:43.301Z,11.73
2023-03-17T21:25:47.807Z,15.90
2023-03-17T21:27:50.850Z,14.10
2023-03-17T21:29:54.224Z,12.40
2023-03-17T21:31:58.197Z,17.03
2023-03-17T21:34:01.579Z,15.20
2023-03-17T21:36:05.253Z,13.00
2023-03-17T21:38:08.754Z,11.77
2023-03-17T21:40:13.477Z,16.50
2023-03-17T21:42:17.950Z,12.87
2023-03-17T21:44:21.328Z,17.13
2023-03-17T21:46:24.398Z,12.37
2023-03-17T21:48:27.539Z,17.33
2023-03-17T21:50:31.506Z,18.83
2023-03-17T21:52:34.872Z,15.63
2023-03-17T21:54:38.262Z,21.47
2023-03-17T21:56:41.515Z,14.00
2023-03-17T21:58:45.970Z,16.07
2023-03-17T22:00:49.415Z,15.93
2023-03-17T22:02:53.567Z,13.47
2023-03-17T22:04:56.818Z,12.50
2023-03-17T22:07:00.074Z,10.83
2023-03-17T22:09:04.399Z,12.40
2023-03-17T22:11:08.598Z,13.93
2023-03-17T22:13:12.546Z,14.50
2023-03-17T22:15:17.799Z,12.03
2023-03-17T22:17:21.080Z,11.07
2023-03-17T22:19:24.522Z,12.70
2023-03-17T22:21:29.004Z,11.77
2023-03-17T22:23:33.658Z,14.00
2023-03-17T22:25:36.737Z,12.07
2023-03-17T22:27:40.115Z,13.77
2023-03-17T22:29:43.215Z,11.97
2023-03-17T22:31:47.828Z,13.70
2023-03-17T22:33:52.342Z,12.30
2023-03-17T22:35:55.500Z,11.50
2023-03-17T22:37:58.623Z,13.70
2023-03-17T22:40:05.006Z,11.90
2023-03-17T22:42:08.559Z,9.10
2023-03-17T22:44:12.381Z,7.97
2023-03-17T22:46:16.497Z,15.20
2023-03-17T22:48:21.045Z,9.10
2023-03-17T22:50:24.565Z,13.00
2023-03-17T22:52:27.592Z,11.40
2023-03-17T22:54:30.716Z,10.10
2023-03-17T22:56:33.809Z,12.03
2023-03-17T22:58:37.080Z,11.30
2023-03-17T23:00:40.388Z,9.90
2023-03-17T23:02:43.902Z,12.47
2023-03-17T23:04:49.172Z,9.63
2023-03-17T23:06:52.830Z,14.97
2023-03-17T23:08:56.023Z,8.17
2023-03-17T23:11:01.017Z,9.60
2023-03-17T23:13:04.629Z,10.00
2023-03-17T23:15:10.223Z,14.43
2023-03-17T23:17:13.872Z,8.50
2023-03-17T23:19:17.123Z,9.37
2023-03-17T23:21:24.171Z,11.17
2023-03-17T23:23:27.252Z,11.90
2023-03-17T23:25:30.971Z,9.23
2023-03-17T23:27:34.034Z,11.03
2023-03-17T23:29:37.067Z,13.40
2023-03-17T23:31:40.936Z,15.13
2023-03-17T23:33:44.067Z,9.60
2023-03-17T23:35:47.138Z,11.07
2023-03-17T23:37:51.991Z,9.63
2023-03-17T23:39:55.488Z,10.30
2023-03-17T23:41:58.571Z,10.40
2023-03-17T23:44:01.848Z,10.43
2023-03-17T23:46:05.288Z,9.17
2023-03-17T23:48:09.048Z,10.47
2023-03-17T23:50:13.194Z,12.80
2023-03-17T23:52:16.912Z,11.90
2023-03-17T23:54:21.469Z,12.87
2023-03-17T23:56:24.947Z,10.90
2023-03-17T23:58:28.175Z,9.90
